SWA2691 PHNL-KSMF
Flight info
| Callsign | SWA2691 |
|---|---|
| Flight time | 4h 51m |
| Altitude | 37000 |
| Route | MKK5 KOLEA CLUTS R465 CINNY PYE |
| Aircraft | B38M/M-SDE1FGHILORVWXY/HB1 |
Departure
| Time | 2026-05-07 18:54 |
|---|---|
| Airport | Daniel K. Inouye International Airport (PHNL) |
Arrival
| Time | 2026-05-07 23:45 |
|---|---|
| Airport | Sacramento International Airport (KSMF) |
| Time | Latitude | Longitude | Altitude | Speed | Heading |
|---|---|---|---|---|---|
| 2026-05-07 18:16 | 21.32924 | -157.92080 | 26 ft | 0 kts | 69° |
| 2026-05-07 18:43 | 21.32920 | -157.92090 | 26 ft | 2 kts | 70° |
| 2026-05-07 18:43 | 21.32921 | -157.92108 | 26 ft | 2 kts | 130° |
| 2026-05-07 18:43 | 21.32932 | -157.92116 | 26 ft | 0 kts | 168° |
| 2026-05-07 18:45 | 21.32927 | -157.92115 | 26 ft | 0 kts | 168° |
| 2026-05-07 18:46 | 21.32925 | -157.92114 | 26 ft | 0 kts | 168° |
| 2026-05-07 18:46 | 21.32922 | -157.92114 | 26 ft | 1 kts | 173° |
| 2026-05-07 18:46 | 21.32918 | -157.92116 | 26 ft | 1 kts | 205° |
| 2026-05-07 18:47 | 21.32908 | -157.92127 | 26 ft | 5 kts | 226° |
| 2026-05-07 18:47 | 21.32864 | -157.92166 | 26 ft | 10 kts | 200° |
| 2026-05-07 18:47 | 21.32792 | -157.92192 | 27 ft | 12 kts | 224° |
| 2026-05-07 18:47 | 21.32734 | -157.92251 | 27 ft | 12 kts | 193° |
| 2026-05-07 18:48 | 21.32644 | -157.92256 | 27 ft | 14 kts | 181° |
| 2026-05-07 18:48 | 21.32546 | -157.92249 | 27 ft | 15 kts | 155° |
| 2026-05-07 18:48 | 21.32453 | -157.92191 | 27 ft | 16 kts | 149° |
| 2026-05-07 18:48 | 21.32353 | -157.92128 | 26 ft | 17 kts | 149° |
| 2026-05-07 18:49 | 21.32244 | -157.92061 | 26 ft | 19 kts | 150° |
| 2026-05-07 18:49 | 21.32149 | -157.92004 | 26 ft | 13 kts | 150° |
| 2026-05-07 18:49 | 21.32068 | -157.91954 | 26 ft | 14 kts | 149° |
| 2026-05-07 18:49 | 21.31981 | -157.91900 | 26 ft | 15 kts | 150° |
| 2026-05-07 18:50 | 21.31886 | -157.91841 | 26 ft | 14 kts | 150° |
| 2026-05-07 18:50 | 21.31806 | -157.91839 | 26 ft | 13 kts | 222° |
| 2026-05-07 18:50 | 21.31749 | -157.91916 | 27 ft | 14 kts | 233° |
| 2026-05-07 18:50 | 21.31688 | -157.92003 | 27 ft | 15 kts | 233° |
| 2026-05-07 18:51 | 21.31622 | -157.92099 | 27 ft | 17 kts | 233° |
| 2026-05-07 18:51 | 21.31549 | -157.92202 | 27 ft | 18 kts | 233° |
| 2026-05-07 18:51 | 21.31472 | -157.92312 | 27 ft | 19 kts | 233° |
| 2026-05-07 18:51 | 21.31390 | -157.92430 | 27 ft | 20 kts | 233° |
| 2026-05-07 18:52 | 21.31301 | -157.92552 | 27 ft | 20 kts | 232° |
| 2026-05-07 18:52 | 21.31329 | -157.92648 | 27 ft | 14 kts | 326° |
| 2026-05-07 18:52 | 21.31417 | -157.92674 | 27 ft | 11 kts | 29° |
| 2026-05-07 18:52 | 21.31441 | -157.92648 | 27 ft | 5 kts | 51° |
| 2026-05-07 18:53 | 21.31460 | -157.92622 | 27 ft | 0 kts | 52° |
| 2026-05-07 18:53 | 21.31520 | -157.92536 | 27 ft | 47 kts | 53° |
| 2026-05-07 18:53 | 21.31874 | -157.92034 | 27 ft | 119 kts | 53° |
| 2026-05-07 18:53 | 21.32496 | -157.91153 | 42 ft | 173 kts | 52° |
| 2026-05-07 18:54 | 21.33216 | -157.90074 | 659 ft | 178 kts | 56° |
| 2026-05-07 18:54 | 21.33938 | -157.89041 | 1608 ft | 168 kts | 52° |
| 2026-05-07 18:54 | 21.34408 | -157.87824 | 1988 ft | 195 kts | 81° |
| 2026-05-07 18:54 | 21.34244 | -157.86288 | 2468 ft | 215 kts | 106° |
| 2026-05-07 18:55 | 21.33757 | -157.84752 | 3289 ft | 223 kts | 106° |
| 2026-05-07 18:55 | 21.33271 | -157.83121 | 3964 ft | 234 kts | 106° |
| 2026-05-07 18:55 | 21.32771 | -157.81421 | 4659 ft | 247 kts | 107° |
| 2026-05-07 18:55 | 21.32238 | -157.79585 | 5138 ft | 268 kts | 107° |
| 2026-05-07 18:56 | 21.31668 | -157.77618 | 5733 ft | 282 kts | 107° |
| 2026-05-07 18:56 | 21.31081 | -157.75607 | 6643 ft | 286 kts | 108° |
| 2026-05-07 18:56 | 21.30487 | -157.73556 | 7466 ft | 288 kts | 108° |
| 2026-05-07 18:56 | 21.29884 | -157.71490 | 8261 ft | 294 kts | 109° |
| 2026-05-07 18:57 | 21.29268 | -157.69376 | 9028 ft | 298 kts | 108° |
| 2026-05-07 18:57 | 21.28647 | -157.67245 | 9912 ft | 302 kts | 108° |
| 2026-05-07 18:57 | 21.28009 | -157.65061 | 10423 ft | 315 kts | 108° |
| 2026-05-07 18:57 | 21.27336 | -157.62746 | 10719 ft | 335 kts | 109° |
| 2026-05-07 18:58 | 21.26624 | -157.60292 | 11034 ft | 353 kts | 108° |
| 2026-05-07 18:58 | 21.25882 | -157.57740 | 11530 ft | 360 kts | 108° |
| 2026-05-07 18:58 | 21.25130 | -157.55171 | 12232 ft | 363 kts | 108° |
| 2026-05-07 18:58 | 21.24370 | -157.52581 | 12913 ft | 366 kts | 108° |
| 2026-05-07 18:59 | 21.23603 | -157.49968 | 13538 ft | 370 kts | 108° |
| 2026-05-07 18:59 | 21.22828 | -157.47327 | 14184 ft | 373 kts | 109° |
| 2026-05-07 18:59 | 21.22309 | -157.45560 | 14510 ft | 377 kts | 108° |
| 2026-05-07 18:59 | 21.21266 | -157.42010 | 15398 ft | 377 kts | 108° |
| 2026-05-07 19:00 | 21.20474 | -157.39316 | 15994 ft | 379 kts | 108° |
| 2026-05-07 19:00 | 21.19678 | -157.36615 | 16566 ft | 382 kts | 108° |
| 2026-05-07 19:00 | 21.18874 | -157.33884 | 17101 ft | 385 kts | 108° |
| 2026-05-07 19:00 | 21.18064 | -157.31137 | 17642 ft | 388 kts | 108° |
| 2026-05-07 19:01 | 21.17513 | -157.29266 | 18030 ft | 390 kts | 108° |
| 2026-05-07 19:01 | 21.16695 | -157.26496 | 18564 ft | 391 kts | 108° |
| 2026-05-07 19:01 | 21.15870 | -157.23705 | 19020 ft | 394 kts | 108° |
| 2026-05-07 19:01 | 21.15114 | -157.20875 | 19448 ft | 398 kts | 100° |
| 2026-05-07 19:02 | 21.15031 | -157.17915 | 19887 ft | 400 kts | 82° |
| 2026-05-07 19:02 | 21.15770 | -157.15033 | 20250 ft | 405 kts | 65° |
| 2026-05-07 19:02 | 21.17250 | -157.12467 | 20699 ft | 407 kts | 52° |
| 2026-05-07 19:02 | 21.18988 | -157.10054 | 21062 ft | 411 kts | 52° |
| 2026-05-07 19:03 | 21.20743 | -157.07672 | 21490 ft | 414 kts | 51° |
| 2026-05-07 19:03 | 21.22547 | -157.05255 | 21902 ft | 417 kts | 51° |
| 2026-05-07 19:03 | 21.24375 | -157.02828 | 22300 ft | 420 kts | 51° |
| 2026-05-07 19:03 | 21.26219 | -157.00387 | 22701 ft | 423 kts | 51° |
| 2026-05-07 19:04 | 21.28077 | -156.97933 | 23124 ft | 425 kts | 51° |
| 2026-05-07 19:04 | 21.29950 | -156.95458 | 23501 ft | 429 kts | 51° |
| 2026-05-07 19:04 | 21.31834 | -156.92967 | 23852 ft | 432 kts | 51° |
| 2026-05-07 19:04 | 21.33731 | -156.90460 | 24191 ft | 434 kts | 51° |
| 2026-05-07 19:05 | 21.35638 | -156.87937 | 24535 ft | 436 kts | 51° |
| 2026-05-07 19:05 | 21.37549 | -156.85407 | 24907 ft | 437 kts | 51° |
| 2026-05-07 19:05 | 21.39469 | -156.82865 | 25235 ft | 440 kts | 51° |
| 2026-05-07 19:05 | 21.41400 | -156.80307 | 25572 ft | 442 kts | 51° |
| 2026-05-07 19:06 | 21.43341 | -156.77734 | 25914 ft | 444 kts | 51° |
| 2026-05-07 19:06 | 21.47249 | -156.72552 | 26564 ft | 449 kts | 51° |
| 2026-05-07 19:06 | 21.49216 | -156.69941 | 26883 ft | 451 kts | 51° |
| 2026-05-07 19:07 | 21.51195 | -156.67313 | 27197 ft | 453 kts | 51° |
| 2026-05-07 19:07 | 21.53181 | -156.64675 | 27504 ft | 456 kts | 51° |
| 2026-05-07 19:07 | 21.55177 | -156.62023 | 27819 ft | 458 kts | 51° |
| 2026-05-07 19:07 | 21.57185 | -156.59353 | 28115 ft | 460 kts | 51° |
| 2026-05-07 19:08 | 21.59199 | -156.56673 | 28408 ft | 462 kts | 51° |
| 2026-05-07 19:08 | 21.61224 | -156.53977 | 28711 ft | 464 kts | 51° |
| 2026-05-07 19:08 | 21.63258 | -156.51268 | 29010 ft | 467 kts | 51° |
| 2026-05-07 19:08 | 21.65299 | -156.48549 | 29295 ft | 469 kts | 51° |
| 2026-05-07 19:09 | 21.67351 | -156.45813 | 29584 ft | 471 kts | 51° |
| 2026-05-07 19:09 | 21.69411 | -156.43065 | 29858 ft | 473 kts | 51° |
| 2026-05-07 19:09 | 21.71482 | -156.40300 | 30146 ft | 475 kts | 51° |
| 2026-05-07 19:09 | 21.73563 | -156.37524 | 30382 ft | 477 kts | 51° |
| 2026-05-07 19:10 | 21.75645 | -156.34742 | 30618 ft | 479 kts | 51° |
| 2026-05-07 19:10 | 21.77741 | -156.31940 | 30859 ft | 481 kts | 51° |
| 2026-05-07 19:10 | 21.79841 | -156.29131 | 31098 ft | 483 kts | 51° |
| 2026-05-07 19:10 | 21.81947 | -156.26314 | 31352 ft | 484 kts | 51° |
| 2026-05-07 19:11 | 21.84058 | -156.23489 | 31650 ft | 484 kts | 51° |
| 2026-05-07 19:11 | 21.86166 | -156.20665 | 31995 ft | 483 kts | 51° |
| 2026-05-07 19:11 | 21.88266 | -156.17852 | 32356 ft | 482 kts | 51° |
| 2026-05-07 19:11 | 21.90364 | -156.15038 | 32688 ft | 481 kts | 51° |
| 2026-05-07 19:12 | 21.92460 | -156.12227 | 33016 ft | 481 kts | 51° |
| 2026-05-07 19:12 | 21.94551 | -156.09420 | 33357 ft | 480 kts | 51° |
| 2026-05-07 19:12 | 21.96638 | -156.06618 | 33686 ft | 479 kts | 51° |
| 2026-05-07 19:12 | 21.98721 | -156.03820 | 33999 ft | 479 kts | 51° |
| 2026-05-07 19:13 | 22.00804 | -156.01019 | 34281 ft | 479 kts | 51° |
| 2026-05-07 19:13 | 22.02884 | -155.98221 | 34540 ft | 478 kts | 51° |
| 2026-05-07 19:13 | 22.04962 | -155.95425 | 34791 ft | 478 kts | 51° |
| 2026-05-07 19:13 | 22.07036 | -155.92632 | 35054 ft | 477 kts | 51° |
| 2026-05-07 19:14 | 22.09110 | -155.89839 | 35288 ft | 477 kts | 51° |
| 2026-05-07 19:14 | 22.11179 | -155.87051 | 35522 ft | 476 kts | 51° |
| 2026-05-07 19:14 | 22.13248 | -155.84261 | 35756 ft | 476 kts | 51° |
| 2026-05-07 19:14 | 22.15311 | -155.81477 | 35975 ft | 475 kts | 51° |
| 2026-05-07 19:15 | 22.17375 | -155.78691 | 36195 ft | 475 kts | 51° |
| 2026-05-07 19:15 | 22.19434 | -155.75910 | 36413 ft | 474 kts | 51° |
| 2026-05-07 19:15 | 22.21461 | -155.73171 | 36621 ft | 473 kts | 51° |
| 2026-05-07 19:15 | 22.23514 | -155.70395 | 36823 ft | 473 kts | 51° |
| 2026-05-07 19:16 | 22.25566 | -155.67621 | 37017 ft | 472 kts | 51° |
| 2026-05-07 19:16 | 22.27614 | -155.64848 | 37155 ft | 472 kts | 51° |
| 2026-05-07 19:16 | 22.31703 | -155.59310 | 37149 ft | 470 kts | 51° |
| 2026-05-07 19:17 | 22.35774 | -155.53790 | 37151 ft | 470 kts | 51° |
| 2026-05-07 19:17 | 22.39844 | -155.48266 | 37147 ft | 470 kts | 51° |
| 2026-05-07 19:18 | 22.43912 | -155.42739 | 37152 ft | 470 kts | 51° |
| 2026-05-07 19:18 | 22.47974 | -155.37214 | 37157 ft | 469 kts | 51° |
| 2026-05-07 19:19 | 22.52035 | -155.31687 | 37151 ft | 469 kts | 51° |
| 2026-05-07 19:19 | 22.56093 | -155.26156 | 37145 ft | 469 kts | 51° |
| 2026-05-07 19:20 | 22.60147 | -155.20624 | 37148 ft | 469 kts | 51° |
| 2026-05-07 19:20 | 22.64197 | -155.15091 | 37151 ft | 469 kts | 51° |
| 2026-05-07 19:21 | 22.68242 | -155.09558 | 37150 ft | 469 kts | 52° |
| 2026-05-07 19:21 | 22.72288 | -155.04021 | 37150 ft | 469 kts | 52° |
| 2026-05-07 19:22 | 22.76331 | -154.98481 | 37155 ft | 469 kts | 52° |
| 2026-05-07 19:22 | 22.80370 | -154.92939 | 37153 ft | 468 kts | 52° |
| 2026-05-07 19:23 | 22.84403 | -154.87402 | 37154 ft | 468 kts | 52° |
| 2026-05-07 19:23 | 22.88433 | -154.81861 | 37155 ft | 468 kts | 52° |
| 2026-05-07 19:24 | 22.92438 | -154.76350 | 37155 ft | 468 kts | 52° |
| 2026-05-07 19:24 | 22.96465 | -154.70802 | 37152 ft | 468 kts | 52° |
| 2026-05-07 19:25 | 23.00438 | -154.65202 | 37148 ft | 468 kts | 58° |
| 2026-05-07 19:25 | 23.03965 | -154.59275 | 37153 ft | 468 kts | 57° |
| 2026-05-07 19:26 | 23.07553 | -154.53380 | 37155 ft | 468 kts | 57° |
| 2026-05-07 19:26 | 23.11148 | -154.47488 | 37156 ft | 468 kts | 57° |
| 2026-05-07 19:27 | 23.14743 | -154.41592 | 37150 ft | 468 kts | 57° |
| 2026-05-07 19:27 | 23.18334 | -154.35696 | 37150 ft | 468 kts | 57° |
| 2026-05-07 19:28 | 23.21922 | -154.29796 | 37153 ft | 467 kts | 57° |
| 2026-05-07 19:28 | 23.25505 | -154.23900 | 37152 ft | 467 kts | 57° |
| 2026-05-07 19:29 | 23.29088 | -154.17996 | 37150 ft | 468 kts | 57° |
| 2026-05-07 19:29 | 23.32666 | -154.12095 | 37153 ft | 468 kts | 57° |
| 2026-05-07 19:30 | 23.36243 | -154.06185 | 37161 ft | 468 kts | 57° |
| 2026-05-07 19:30 | 23.39820 | -154.00273 | 37159 ft | 467 kts | 57° |
| 2026-05-07 19:31 | 23.43388 | -153.94365 | 37156 ft | 467 kts | 57° |
| 2026-05-07 19:31 | 23.46954 | -153.88456 | 37155 ft | 467 kts | 57° |
| 2026-05-07 19:32 | 23.50515 | -153.82545 | 37155 ft | 467 kts | 57° |
| 2026-05-07 19:32 | 23.54078 | -153.76627 | 37158 ft | 467 kts | 57° |
| 2026-05-07 19:33 | 23.57638 | -153.70707 | 37165 ft | 467 kts | 57° |
| 2026-05-07 19:33 | 23.61194 | -153.64786 | 37157 ft | 467 kts | 57° |
| 2026-05-07 19:34 | 23.64749 | -153.58860 | 37166 ft | 467 kts | 58° |
| 2026-05-07 19:34 | 23.68280 | -153.52966 | 37163 ft | 467 kts | 57° |
| 2026-05-07 19:35 | 23.71830 | -153.47036 | 37156 ft | 467 kts | 58° |
| 2026-05-07 19:35 | 23.75379 | -153.41100 | 37154 ft | 467 kts | 57° |
| 2026-05-07 19:36 | 23.78929 | -153.35165 | 37155 ft | 467 kts | 57° |
| 2026-05-07 19:36 | 23.82484 | -153.29226 | 37158 ft | 467 kts | 57° |
| 2026-05-07 19:37 | 23.86039 | -153.23283 | 37158 ft | 467 kts | 57° |
| 2026-05-07 19:37 | 23.89590 | -153.17337 | 37160 ft | 467 kts | 57° |
| 2026-05-07 19:38 | 23.93141 | -153.11386 | 37151 ft | 467 kts | 57° |
| 2026-05-07 19:38 | 23.96686 | -153.05437 | 37163 ft | 467 kts | 57° |
| 2026-05-07 19:39 | 24.00227 | -152.99487 | 37163 ft | 467 kts | 57° |
| 2026-05-07 19:39 | 24.03171 | -152.94537 | 37161 ft | 467 kts | 57° |
| 2026-05-07 19:40 | 24.07311 | -152.87565 | 37160 ft | 467 kts | 57° |
| 2026-05-07 19:40 | 24.10849 | -152.81599 | 37162 ft | 467 kts | 57° |
| 2026-05-07 19:41 | 24.14383 | -152.75632 | 37163 ft | 467 kts | 58° |
| 2026-05-07 19:41 | 24.17915 | -152.69661 | 37161 ft | 467 kts | 58° |
| 2026-05-07 19:42 | 24.21444 | -152.63690 | 37161 ft | 467 kts | 58° |
| 2026-05-07 19:42 | 24.24973 | -152.57710 | 37162 ft | 468 kts | 58° |
| 2026-05-07 19:43 | 24.28503 | -152.51722 | 37162 ft | 468 kts | 58° |
| 2026-05-07 19:43 | 24.32006 | -152.45772 | 37164 ft | 468 kts | 58° |
| 2026-05-07 19:44 | 24.35531 | -152.39777 | 37164 ft | 468 kts | 58° |
| 2026-05-07 19:44 | 24.39054 | -152.33778 | 37163 ft | 468 kts | 58° |
| 2026-05-07 19:45 | 24.42576 | -152.27775 | 37162 ft | 468 kts | 58° |
| 2026-05-07 19:45 | 24.46094 | -152.21770 | 37156 ft | 468 kts | 58° |
| 2026-05-07 19:46 | 24.49619 | -152.15747 | 37168 ft | 469 kts | 58° |
| 2026-05-07 19:46 | 24.53138 | -152.09725 | 37166 ft | 469 kts | 58° |
| 2026-05-07 19:47 | 24.56657 | -152.03697 | 37164 ft | 469 kts | 58° |
| 2026-05-07 19:47 | 24.60174 | -151.97663 | 37164 ft | 469 kts | 58° |
| 2026-05-07 19:48 | 24.63094 | -151.92648 | 37170 ft | 469 kts | 58° |
| 2026-05-07 19:48 | 24.66607 | -151.86608 | 37164 ft | 469 kts | 58° |
| 2026-05-07 19:49 | 24.70123 | -151.80555 | 37164 ft | 470 kts | 58° |
| 2026-05-07 19:49 | 24.73636 | -151.74501 | 37166 ft | 470 kts | 58° |
| 2026-05-07 19:50 | 24.77148 | -151.68441 | 37162 ft | 470 kts | 58° |
| 2026-05-07 19:50 | 24.80657 | -151.62378 | 37170 ft | 470 kts | 58° |
| 2026-05-07 19:51 | 24.84164 | -151.56310 | 37167 ft | 470 kts | 58° |
| 2026-05-07 19:51 | 24.87670 | -151.50236 | 37163 ft | 470 kts | 58° |
| 2026-05-07 19:52 | 24.91176 | -151.44155 | 37170 ft | 470 kts | 58° |
| 2026-05-07 19:52 | 24.94680 | -151.38070 | 37169 ft | 470 kts | 58° |
| 2026-05-07 19:53 | 24.98183 | -151.31979 | 37162 ft | 470 kts | 58° |
| 2026-05-07 19:53 | 25.01680 | -151.25889 | 37167 ft | 470 kts | 58° |
| 2026-05-07 19:54 | 25.05177 | -151.19793 | 37176 ft | 470 kts | 58° |
| 2026-05-07 19:54 | 25.08673 | -151.13689 | 37164 ft | 471 kts | 58° |
| 2026-05-07 19:55 | 25.12171 | -151.07576 | 37162 ft | 471 kts | 58° |
| 2026-05-07 19:55 | 25.15643 | -151.01501 | 37166 ft | 471 kts | 58° |
| 2026-05-07 19:56 | 25.19160 | -150.95337 | 37164 ft | 471 kts | 58° |
| 2026-05-07 19:56 | 25.22629 | -150.89250 | 37168 ft | 471 kts | 58° |
| 2026-05-07 19:57 | 25.26118 | -150.83119 | 37168 ft | 471 kts | 58° |
| 2026-05-07 19:57 | 25.29605 | -150.76986 | 37171 ft | 471 kts | 58° |
| 2026-05-07 19:58 | 25.33088 | -150.70851 | 37163 ft | 471 kts | 58° |
| 2026-05-07 19:58 | 25.36570 | -150.64710 | 37165 ft | 471 kts | 58° |
| 2026-05-07 19:59 | 25.40046 | -150.58569 | 37170 ft | 471 kts | 58° |
| 2026-05-07 19:59 | 25.43523 | -150.52420 | 37171 ft | 471 kts | 58° |
| 2026-05-07 20:00 | 25.46997 | -150.46270 | 37172 ft | 472 kts | 58° |
| 2026-05-07 20:00 | 25.50479 | -150.40096 | 37172 ft | 473 kts | 58° |
| 2026-05-07 20:01 | 25.53957 | -150.33921 | 37172 ft | 472 kts | 58° |
| 2026-05-07 20:01 | 25.57431 | -150.27745 | 37167 ft | 472 kts | 58° |
| 2026-05-07 20:02 | 25.60903 | -150.21564 | 37176 ft | 472 kts | 58° |
| 2026-05-07 20:02 | 25.64373 | -150.15378 | 37179 ft | 472 kts | 58° |
| 2026-05-07 20:03 | 25.67844 | -150.09184 | 37170 ft | 473 kts | 58° |
| 2026-05-07 20:03 | 25.71312 | -150.02985 | 37172 ft | 473 kts | 58° |
| 2026-05-07 20:04 | 25.74779 | -149.96780 | 37168 ft | 473 kts | 58° |
| 2026-05-07 20:04 | 25.78243 | -149.90571 | 37173 ft | 473 kts | 58° |
| 2026-05-07 20:05 | 25.81682 | -149.84401 | 37171 ft | 473 kts | 58° |
| 2026-05-07 20:05 | 25.85141 | -149.78187 | 37176 ft | 473 kts | 58° |
| 2026-05-07 20:06 | 25.88598 | -149.71966 | 37170 ft | 473 kts | 58° |
| 2026-05-07 20:06 | 25.92053 | -149.65740 | 37169 ft | 473 kts | 58° |
| 2026-05-07 20:07 | 25.95505 | -149.59511 | 37166 ft | 473 kts | 58° |
| 2026-05-07 20:07 | 25.98966 | -149.53259 | 37172 ft | 473 kts | 58° |
| 2026-05-07 20:08 | 26.02390 | -149.47065 | 37181 ft | 473 kts | 58° |
| 2026-05-07 20:08 | 26.05835 | -149.40823 | 37167 ft | 474 kts | 58° |
| 2026-05-07 20:09 | 26.09279 | -149.34576 | 37180 ft | 474 kts | 58° |
| 2026-05-07 20:10 | 26.14438 | -149.25202 | 37167 ft | 474 kts | 58° |
| 2026-05-07 20:10 | 26.17875 | -149.18945 | 37175 ft | 474 kts | 58° |
| 2026-05-07 20:11 | 26.21308 | -149.12688 | 37178 ft | 474 kts | 58° |
| 2026-05-07 20:11 | 26.24741 | -149.06420 | 37173 ft | 474 kts | 58° |
| 2026-05-07 20:12 | 26.28177 | -149.00141 | 37173 ft | 474 kts | 58° |
| 2026-05-07 20:12 | 26.31604 | -148.93867 | 37174 ft | 474 kts | 58° |
| 2026-05-07 20:13 | 26.35031 | -148.87586 | 37175 ft | 474 kts | 58° |
| 2026-05-07 20:13 | 26.38455 | -148.81302 | 37181 ft | 474 kts | 58° |
| 2026-05-07 20:14 | 26.41877 | -148.75011 | 37175 ft | 475 kts | 58° |
| 2026-05-07 20:14 | 26.45300 | -148.68711 | 37180 ft | 475 kts | 58° |
| 2026-05-07 20:15 | 26.48720 | -148.62408 | 37172 ft | 475 kts | 58° |
| 2026-05-07 20:15 | 26.52138 | -148.56098 | 37176 ft | 475 kts | 58° |
| 2026-05-07 20:16 | 26.55553 | -148.49786 | 37173 ft | 475 kts | 58° |
| 2026-05-07 20:16 | 26.58966 | -148.43469 | 37176 ft | 475 kts | 58° |
| 2026-05-07 20:17 | 26.62380 | -148.37141 | 37172 ft | 475 kts | 58° |
| 2026-05-07 20:17 | 26.65766 | -148.30856 | 37176 ft | 475 kts | 58° |
| 2026-05-07 20:18 | 26.69186 | -148.24498 | 37177 ft | 475 kts | 58° |
| 2026-05-07 20:18 | 26.72591 | -148.18160 | 37169 ft | 475 kts | 58° |
| 2026-05-07 20:19 | 26.75989 | -148.11825 | 37178 ft | 475 kts | 58° |
| 2026-05-07 20:19 | 26.79390 | -148.05476 | 37177 ft | 476 kts | 58° |
| 2026-05-07 20:20 | 26.82788 | -147.99122 | 37178 ft | 476 kts | 58° |
| 2026-05-07 20:20 | 26.86163 | -147.92805 | 37178 ft | 476 kts | 58° |
| 2026-05-07 20:21 | 26.89554 | -147.86446 | 37175 ft | 475 kts | 58° |
| 2026-05-07 20:21 | 26.92941 | -147.80090 | 37188 ft | 475 kts | 58° |
| 2026-05-07 20:22 | 26.96331 | -147.73718 | 37179 ft | 476 kts | 58° |
| 2026-05-07 20:22 | 26.99720 | -147.67339 | 37179 ft | 476 kts | 58° |
| 2026-05-07 20:23 | 27.03107 | -147.60955 | 37177 ft | 476 kts | 58° |
| 2026-05-07 20:23 | 27.06486 | -147.54577 | 37179 ft | 476 kts | 58° |
| 2026-05-07 20:24 | 27.09864 | -147.48191 | 37176 ft | 476 kts | 58° |
| 2026-05-07 20:24 | 27.13239 | -147.41802 | 37179 ft | 476 kts | 58° |
| 2026-05-07 20:25 | 27.16611 | -147.35410 | 37174 ft | 475 kts | 58° |
| 2026-05-07 20:25 | 27.19975 | -147.29024 | 37178 ft | 475 kts | 58° |
| 2026-05-07 20:26 | 27.23334 | -147.22632 | 37180 ft | 475 kts | 59° |
| 2026-05-07 20:26 | 27.26658 | -147.16275 | 37192 ft | 475 kts | 58° |
| 2026-05-07 20:27 | 27.30016 | -147.09869 | 37184 ft | 476 kts | 58° |
| 2026-05-07 20:27 | 27.33371 | -147.03457 | 37170 ft | 475 kts | 58° |
| 2026-05-07 20:28 | 27.36724 | -146.97043 | 37183 ft | 476 kts | 58° |
| 2026-05-07 20:28 | 27.40074 | -146.90623 | 37178 ft | 476 kts | 58° |
| 2026-05-07 20:29 | 27.43419 | -146.84204 | 37179 ft | 476 kts | 58° |
| 2026-05-07 20:29 | 27.46765 | -146.77773 | 37179 ft | 476 kts | 58° |
| 2026-05-07 20:30 | 27.50104 | -146.71346 | 37177 ft | 476 kts | 58° |
| 2026-05-07 20:30 | 27.53442 | -146.64911 | 37180 ft | 476 kts | 58° |
| 2026-05-07 20:31 | 27.56776 | -146.58475 | 37180 ft | 476 kts | 58° |
| 2026-05-07 20:31 | 27.60109 | -146.52032 | 37190 ft | 475 kts | 58° |
| 2026-05-07 20:32 | 27.63441 | -146.45580 | 37178 ft | 477 kts | 58° |
| 2026-05-07 20:32 | 27.66774 | -146.39116 | 37179 ft | 477 kts | 58° |
| 2026-05-07 20:33 | 27.70102 | -146.32652 | 37183 ft | 477 kts | 58° |
| 2026-05-07 20:33 | 27.73429 | -146.26180 | 37184 ft | 476 kts | 58° |
| 2026-05-07 20:34 | 27.76751 | -146.19710 | 37183 ft | 476 kts | 58° |
| 2026-05-07 20:34 | 27.80071 | -146.13232 | 37181 ft | 477 kts | 58° |
| 2026-05-07 20:35 | 27.83390 | -146.06747 | 37179 ft | 477 kts | 58° |
| 2026-05-07 20:35 | 27.86146 | -146.01353 | 37176 ft | 477 kts | 58° |
| 2026-05-07 20:36 | 27.89461 | -145.94859 | 37177 ft | 477 kts | 58° |
| 2026-05-07 20:36 | 27.92771 | -145.88363 | 37188 ft | 477 kts | 58° |
| 2026-05-07 20:37 | 27.96079 | -145.81861 | 37179 ft | 477 kts | 58° |
| 2026-05-07 20:37 | 27.99385 | -145.75352 | 37180 ft | 477 kts | 58° |
| 2026-05-07 20:38 | 28.02688 | -145.68840 | 37178 ft | 477 kts | 58° |
| 2026-05-07 20:38 | 28.05988 | -145.62324 | 37178 ft | 477 kts | 58° |
| 2026-05-07 20:39 | 28.09283 | -145.55807 | 37187 ft | 477 kts | 58° |
| 2026-05-07 20:39 | 28.12580 | -145.49279 | 37178 ft | 477 kts | 58° |
| 2026-05-07 20:40 | 28.15872 | -145.42747 | 37183 ft | 477 kts | 58° |
| 2026-05-07 20:40 | 28.19161 | -145.36212 | 37184 ft | 477 kts | 58° |
| 2026-05-07 20:41 | 28.22446 | -145.29674 | 37188 ft | 477 kts | 58° |
| 2026-05-07 20:41 | 28.25732 | -145.23126 | 37170 ft | 477 kts | 58° |
| 2026-05-07 20:42 | 28.29013 | -145.16576 | 37187 ft | 478 kts | 58° |
| 2026-05-07 20:42 | 28.32293 | -145.10018 | 37183 ft | 478 kts | 58° |
| 2026-05-07 20:43 | 28.35568 | -145.03459 | 37184 ft | 478 kts | 59° |
| 2026-05-07 20:43 | 28.38819 | -144.96939 | 37183 ft | 477 kts | 58° |
| 2026-05-07 20:44 | 28.42086 | -144.90375 | 37190 ft | 478 kts | 58° |
| 2026-05-07 20:44 | 28.45354 | -144.83801 | 37184 ft | 478 kts | 58° |
| 2026-05-07 20:45 | 28.48618 | -144.77223 | 37182 ft | 478 kts | 59° |
| 2026-05-07 20:45 | 28.51879 | -144.70642 | 37182 ft | 477 kts | 58° |
| 2026-05-07 20:46 | 28.55133 | -144.64062 | 37201 ft | 478 kts | 58° |
| 2026-05-07 20:46 | 28.58390 | -144.57468 | 37181 ft | 478 kts | 59° |
| 2026-05-07 20:47 | 28.61642 | -144.50873 | 37185 ft | 478 kts | 59° |
| 2026-05-07 20:47 | 28.64891 | -144.44272 | 37189 ft | 478 kts | 59° |
| 2026-05-07 20:48 | 28.68134 | -144.37674 | 37188 ft | 478 kts | 59° |
| 2026-05-07 20:48 | 28.71376 | -144.31068 | 37186 ft | 478 kts | 59° |
| 2026-05-07 20:49 | 28.74611 | -144.24464 | 37187 ft | 478 kts | 59° |
| 2026-05-07 20:49 | 28.77845 | -144.17852 | 37190 ft | 477 kts | 59° |
| 2026-05-07 20:50 | 28.81073 | -144.11242 | 37188 ft | 477 kts | 59° |
| 2026-05-07 20:50 | 28.84300 | -144.04624 | 37199 ft | 477 kts | 59° |
| 2026-05-07 20:51 | 28.87523 | -143.98003 | 37186 ft | 477 kts | 59° |
| 2026-05-07 20:51 | 28.90742 | -143.91378 | 37189 ft | 478 kts | 59° |
| 2026-05-07 20:52 | 28.93962 | -143.84741 | 37193 ft | 478 kts | 59° |
| 2026-05-07 20:52 | 28.97176 | -143.78106 | 37187 ft | 477 kts | 59° |
| 2026-05-07 20:53 | 29.00387 | -143.71468 | 37191 ft | 478 kts | 59° |
| 2026-05-07 20:53 | 29.03596 | -143.64820 | 37190 ft | 478 kts | 59° |
| 2026-05-07 20:54 | 29.06781 | -143.58212 | 37189 ft | 478 kts | 59° |
| 2026-05-07 20:54 | 29.09982 | -143.51560 | 37189 ft | 478 kts | 59° |
| 2026-05-07 20:55 | 29.13182 | -143.44899 | 37202 ft | 478 kts | 59° |
| 2026-05-07 20:55 | 29.16378 | -143.38237 | 37193 ft | 478 kts | 59° |
| 2026-05-07 20:56 | 29.19572 | -143.31566 | 37194 ft | 478 kts | 59° |
| 2026-05-07 20:56 | 29.22763 | -143.24892 | 37191 ft | 478 kts | 59° |
| 2026-05-07 20:57 | 29.25949 | -143.18216 | 37192 ft | 478 kts | 59° |
| 2026-05-07 20:57 | 29.29134 | -143.11530 | 37193 ft | 478 kts | 59° |
| 2026-05-07 20:58 | 29.32314 | -143.04846 | 37195 ft | 478 kts | 59° |
| 2026-05-07 20:58 | 29.35490 | -142.98158 | 37191 ft | 478 kts | 59° |
| 2026-05-07 20:59 | 29.38665 | -142.91460 | 37195 ft | 478 kts | 59° |
| 2026-05-07 20:59 | 29.41836 | -142.84761 | 37198 ft | 478 kts | 59° |
| 2026-05-07 21:00 | 29.45004 | -142.78056 | 37199 ft | 478 kts | 59° |
| 2026-05-07 21:00 | 29.48170 | -142.71344 | 37198 ft | 478 kts | 59° |
| 2026-05-07 21:01 | 29.51335 | -142.64623 | 37201 ft | 478 kts | 59° |
| 2026-05-07 21:01 | 29.54493 | -142.57903 | 37209 ft | 478 kts | 59° |
| 2026-05-07 21:02 | 29.57649 | -142.51180 | 37193 ft | 478 kts | 59° |
| 2026-05-07 21:02 | 29.60802 | -142.44451 | 37200 ft | 478 kts | 59° |
| 2026-05-07 21:03 | 29.63952 | -142.37715 | 37202 ft | 478 kts | 59° |
| 2026-05-07 21:03 | 29.67096 | -142.30980 | 37200 ft | 478 kts | 59° |
| 2026-05-07 21:04 | 29.70238 | -142.24241 | 37202 ft | 478 kts | 59° |
| 2026-05-07 21:04 | 29.73377 | -142.17495 | 37203 ft | 478 kts | 59° |
| 2026-05-07 21:05 | 29.76491 | -142.10792 | 37203 ft | 478 kts | 59° |
| 2026-05-07 21:05 | 29.79624 | -142.04035 | 37200 ft | 478 kts | 59° |
| 2026-05-07 21:06 | 29.82752 | -141.97276 | 37207 ft | 478 kts | 59° |
| 2026-05-07 21:06 | 29.85877 | -141.90515 | 37203 ft | 478 kts | 59° |
| 2026-05-07 21:07 | 29.88998 | -141.83749 | 37203 ft | 478 kts | 59° |
| 2026-05-07 21:07 | 29.92117 | -141.76977 | 37202 ft | 478 kts | 59° |
| 2026-05-07 21:08 | 29.95234 | -141.70198 | 37209 ft | 478 kts | 60° |
| 2026-05-07 21:08 | 29.98365 | -141.63376 | 37206 ft | 478 kts | 60° |
| 2026-05-07 21:09 | 30.01453 | -141.56635 | 37202 ft | 478 kts | 60° |
| 2026-05-07 21:09 | 30.04561 | -141.49838 | 37206 ft | 479 kts | 60° |
| 2026-05-07 21:10 | 30.07666 | -141.43036 | 37211 ft | 479 kts | 60° |
| 2026-05-07 21:10 | 30.10770 | -141.36226 | 37211 ft | 479 kts | 60° |
| 2026-05-07 21:11 | 30.13871 | -141.29413 | 37205 ft | 480 kts | 60° |
| 2026-05-07 21:11 | 30.18527 | -141.19162 | 37208 ft | 480 kts | 60° |
| 2026-05-07 21:12 | 30.21626 | -141.12325 | 37208 ft | 480 kts | 60° |
| 2026-05-07 21:12 | 30.24717 | -141.05491 | 37209 ft | 480 kts | 60° |
| 2026-05-07 21:13 | 30.27805 | -140.98653 | 37208 ft | 480 kts | 60° |
| 2026-05-07 21:13 | 30.30891 | -140.91808 | 37209 ft | 480 kts | 60° |
| 2026-05-07 21:14 | 30.33972 | -140.84962 | 37210 ft | 479 kts | 60° |
| 2026-05-07 21:14 | 30.37052 | -140.78108 | 37215 ft | 480 kts | 60° |
| 2026-05-07 21:15 | 30.40128 | -140.71245 | 37213 ft | 480 kts | 60° |
| 2026-05-07 21:15 | 30.43183 | -140.64365 | 37211 ft | 480 kts | 60° |
| 2026-05-07 21:16 | 30.46249 | -140.57484 | 37216 ft | 481 kts | 60° |
| 2026-05-07 21:16 | 30.49314 | -140.50596 | 37217 ft | 481 kts | 60° |
| 2026-05-07 21:17 | 30.52355 | -140.43749 | 37217 ft | 481 kts | 60° |
| 2026-05-07 21:17 | 30.55414 | -140.36851 | 37215 ft | 481 kts | 60° |
| 2026-05-07 21:18 | 30.58474 | -140.29937 | 37216 ft | 481 kts | 60° |
| 2026-05-07 21:18 | 30.61528 | -140.23025 | 37220 ft | 481 kts | 61° |
| 2026-05-07 21:19 | 30.64578 | -140.16107 | 37218 ft | 482 kts | 61° |
| 2026-05-07 21:19 | 30.67629 | -140.09176 | 37220 ft | 482 kts | 61° |
| 2026-05-07 21:20 | 30.70675 | -140.02244 | 37202 ft | 481 kts | 61° |
| 2026-05-07 21:20 | 30.73716 | -139.95309 | 37212 ft | 482 kts | 61° |
| 2026-05-07 21:21 | 30.76757 | -139.88360 | 37221 ft | 482 kts | 61° |
| 2026-05-07 21:21 | 30.79795 | -139.81407 | 37236 ft | 482 kts | 61° |
| 2026-05-07 21:22 | 30.82317 | -139.75626 | 37218 ft | 482 kts | 61° |
| 2026-05-07 21:22 | 30.85348 | -139.68666 | 37230 ft | 483 kts | 61° |
| 2026-05-07 21:23 | 30.88378 | -139.61694 | 37225 ft | 482 kts | 61° |
| 2026-05-07 21:23 | 30.91892 | -139.53591 | 37230 ft | 482 kts | 61° |
| 2026-05-07 21:24 | 30.94425 | -139.47742 | 37228 ft | 483 kts | 61° |
| 2026-05-07 21:24 | 30.97446 | -139.40752 | 37223 ft | 483 kts | 61° |
| 2026-05-07 21:25 | 31.00461 | -139.33761 | 37228 ft | 483 kts | 61° |
| 2026-05-07 21:25 | 31.03474 | -139.26765 | 37228 ft | 483 kts | 62° |
| 2026-05-07 21:26 | 31.06485 | -139.19759 | 37221 ft | 483 kts | 62° |
| 2026-05-07 21:26 | 31.09471 | -139.12798 | 37235 ft | 483 kts | 62° |
| 2026-05-07 21:27 | 31.12473 | -139.05785 | 37225 ft | 483 kts | 62° |
| 2026-05-07 21:27 | 31.15473 | -138.98765 | 37235 ft | 483 kts | 62° |
| 2026-05-07 21:28 | 31.18468 | -138.91742 | 37230 ft | 483 kts | 62° |
| 2026-05-07 21:28 | 31.21461 | -138.84712 | 37229 ft | 483 kts | 62° |
| 2026-05-07 21:29 | 31.24451 | -138.77675 | 37231 ft | 483 kts | 62° |
| 2026-05-07 21:29 | 31.27435 | -138.70638 | 37229 ft | 483 kts | 62° |
| 2026-05-07 21:30 | 31.30417 | -138.63594 | 37232 ft | 483 kts | 62° |
| 2026-05-07 21:30 | 31.33393 | -138.56549 | 37236 ft | 483 kts | 62° |
| 2026-05-07 21:31 | 31.36367 | -138.49495 | 37242 ft | 483 kts | 62° |
| 2026-05-07 21:31 | 31.39336 | -138.42441 | 37236 ft | 483 kts | 62° |
| 2026-05-07 21:32 | 31.42299 | -138.35384 | 37231 ft | 483 kts | 62° |
| 2026-05-07 21:32 | 31.45261 | -138.28319 | 37243 ft | 483 kts | 62° |
| 2026-05-07 21:33 | 31.48219 | -138.21249 | 37231 ft | 483 kts | 62° |
| 2026-05-07 21:33 | 31.51171 | -138.14180 | 37234 ft | 483 kts | 62° |
| 2026-05-07 21:34 | 31.54122 | -138.07100 | 37234 ft | 483 kts | 62° |
| 2026-05-07 21:34 | 31.57066 | -138.00020 | 37247 ft | 483 kts | 62° |
| 2026-05-07 21:35 | 31.59990 | -137.92978 | 37244 ft | 483 kts | 62° |
| 2026-05-07 21:35 | 31.62929 | -137.85884 | 37244 ft | 483 kts | 62° |
| 2026-05-07 21:36 | 31.65864 | -137.78785 | 37243 ft | 483 kts | 62° |
| 2026-05-07 21:36 | 31.68793 | -137.71689 | 37241 ft | 483 kts | 62° |
| 2026-05-07 21:37 | 31.71722 | -137.64578 | 37240 ft | 483 kts | 62° |
| 2026-05-07 21:37 | 31.74644 | -137.57469 | 37239 ft | 483 kts | 62° |
| 2026-05-07 21:38 | 31.77563 | -137.50355 | 37245 ft | 483 kts | 63° |
| 2026-05-07 21:38 | 31.80477 | -137.43237 | 37246 ft | 483 kts | 63° |
| 2026-05-07 21:39 | 31.83396 | -137.36092 | 37245 ft | 483 kts | 63° |
| 2026-05-07 21:39 | 31.86301 | -137.28969 | 37248 ft | 483 kts | 63° |
| 2026-05-07 21:40 | 31.89203 | -137.21839 | 37253 ft | 483 kts | 63° |
| 2026-05-07 21:40 | 31.92103 | -137.14699 | 37246 ft | 483 kts | 63° |
| 2026-05-07 21:41 | 31.94977 | -137.07610 | 37251 ft | 483 kts | 63° |
| 2026-05-07 21:41 | 31.97884 | -137.00425 | 37262 ft | 483 kts | 63° |
| 2026-05-07 21:42 | 32.00769 | -136.93278 | 37244 ft | 483 kts | 63° |
| 2026-05-07 21:42 | 32.03648 | -136.86133 | 37249 ft | 483 kts | 63° |
| 2026-05-07 21:43 | 32.06522 | -136.78985 | 37253 ft | 483 kts | 63° |
| 2026-05-07 21:43 | 32.09394 | -136.71828 | 37252 ft | 483 kts | 63° |
| 2026-05-07 21:44 | 32.12266 | -136.64657 | 37251 ft | 483 kts | 63° |
| 2026-05-07 21:44 | 32.15113 | -136.57533 | 37252 ft | 483 kts | 63° |
| 2026-05-07 21:45 | 32.17974 | -136.50358 | 37258 ft | 483 kts | 63° |
| 2026-05-07 21:45 | 32.20832 | -136.43180 | 37256 ft | 483 kts | 63° |
| 2026-05-07 21:46 | 32.23684 | -136.35998 | 37250 ft | 483 kts | 63° |
| 2026-05-07 21:46 | 32.26532 | -136.28814 | 37254 ft | 482 kts | 63° |
| 2026-05-07 21:47 | 32.29374 | -136.21631 | 37255 ft | 482 kts | 63° |
| 2026-05-07 21:47 | 32.32211 | -136.14444 | 37257 ft | 482 kts | 63° |
| 2026-05-07 21:48 | 32.35038 | -136.07269 | 37256 ft | 481 kts | 63° |
| 2026-05-07 21:48 | 32.37862 | -136.00086 | 37261 ft | 482 kts | 63° |
| 2026-05-07 21:49 | 32.40685 | -135.92891 | 37259 ft | 482 kts | 63° |
| 2026-05-07 21:49 | 32.43498 | -135.85706 | 37259 ft | 481 kts | 63° |
| 2026-05-07 21:50 | 32.46307 | -135.78514 | 37269 ft | 481 kts | 63° |
| 2026-05-07 21:50 | 32.49114 | -135.71318 | 37263 ft | 481 kts | 63° |
| 2026-05-07 21:51 | 32.51914 | -135.64120 | 37262 ft | 481 kts | 63° |
| 2026-05-07 21:51 | 32.54708 | -135.56925 | 37268 ft | 481 kts | 63° |
| 2026-05-07 21:52 | 32.57499 | -135.49721 | 37265 ft | 481 kts | 63° |
| 2026-05-07 21:52 | 32.60284 | -135.42519 | 37266 ft | 481 kts | 63° |
| 2026-05-07 21:53 | 32.63066 | -135.35309 | 37265 ft | 480 kts | 63° |
| 2026-05-07 21:53 | 32.65838 | -135.28108 | 37268 ft | 480 kts | 63° |
| 2026-05-07 21:54 | 32.68609 | -135.20898 | 37266 ft | 480 kts | 63° |
| 2026-05-07 21:54 | 32.71372 | -135.13691 | 37264 ft | 479 kts | 64° |
| 2026-05-07 21:55 | 32.74109 | -135.06536 | 37266 ft | 479 kts | 64° |
| 2026-05-07 21:55 | 32.76880 | -134.99278 | 37268 ft | 479 kts | 64° |
| 2026-05-07 21:56 | 32.79629 | -134.92064 | 37265 ft | 479 kts | 64° |
| 2026-05-07 21:56 | 32.82370 | -134.84854 | 37266 ft | 479 kts | 64° |
| 2026-05-07 21:57 | 32.85090 | -134.77686 | 37265 ft | 479 kts | 64° |
| 2026-05-07 21:57 | 32.87824 | -134.70463 | 37268 ft | 479 kts | 64° |
| 2026-05-07 21:58 | 32.90554 | -134.63234 | 37271 ft | 479 kts | 64° |
| 2026-05-07 21:58 | 32.93279 | -134.56006 | 37271 ft | 479 kts | 64° |
| 2026-05-07 21:59 | 32.96001 | -134.48771 | 37271 ft | 479 kts | 64° |
| 2026-05-07 21:59 | 32.98716 | -134.41538 | 37278 ft | 479 kts | 64° |
| 2026-05-07 22:00 | 33.01429 | -134.34295 | 37275 ft | 479 kts | 64° |
| 2026-05-07 22:00 | 33.04137 | -134.27052 | 37276 ft | 479 kts | 64° |
| 2026-05-07 22:01 | 33.06843 | -134.19801 | 37279 ft | 478 kts | 64° |
| 2026-05-07 22:01 | 33.09543 | -134.12552 | 37277 ft | 478 kts | 64° |
| 2026-05-07 22:02 | 33.12237 | -134.05300 | 37278 ft | 478 kts | 64° |
| 2026-05-07 22:02 | 33.14929 | -133.98041 | 37278 ft | 478 kts | 64° |
| 2026-05-07 22:03 | 33.17616 | -133.90780 | 37279 ft | 478 kts | 65° |
| 2026-05-07 22:03 | 33.20281 | -133.83562 | 37277 ft | 478 kts | 65° |
| 2026-05-07 22:04 | 33.22960 | -133.76292 | 37277 ft | 478 kts | 65° |
| 2026-05-07 22:04 | 33.25636 | -133.69015 | 37277 ft | 478 kts | 65° |
| 2026-05-07 22:05 | 33.28296 | -133.61734 | 37280 ft | 478 kts | 65° |
| 2026-05-07 22:05 | 33.30951 | -133.54445 | 37274 ft | 478 kts | 65° |
| 2026-05-07 22:06 | 33.33606 | -133.47169 | 37277 ft | 478 kts | 65° |
| 2026-05-07 22:06 | 33.36260 | -133.39884 | 37279 ft | 478 kts | 65° |
| 2026-05-07 22:07 | 33.38908 | -133.32597 | 37277 ft | 477 kts | 65° |
| 2026-05-07 22:07 | 33.41549 | -133.25313 | 37279 ft | 477 kts | 65° |
| 2026-05-07 22:08 | 33.44188 | -133.18020 | 37283 ft | 477 kts | 65° |
| 2026-05-07 22:08 | 33.46820 | -133.10730 | 37282 ft | 477 kts | 65° |
| 2026-05-07 22:09 | 33.49447 | -133.03437 | 37279 ft | 477 kts | 65° |
| 2026-05-07 22:09 | 33.51628 | -132.97369 | 37287 ft | 476 kts | 65° |
| 2026-05-07 22:10 | 33.54244 | -132.90078 | 37276 ft | 476 kts | 65° |
| 2026-05-07 22:10 | 33.56856 | -132.82780 | 37285 ft | 476 kts | 65° |
| 2026-05-07 22:11 | 33.59465 | -132.75476 | 37285 ft | 476 kts | 65° |
| 2026-05-07 22:11 | 33.62068 | -132.68170 | 37282 ft | 476 kts | 65° |
| 2026-05-07 22:12 | 33.64667 | -132.60861 | 37288 ft | 476 kts | 65° |
| 2026-05-07 22:12 | 33.67259 | -132.53553 | 37281 ft | 475 kts | 65° |
| 2026-05-07 22:13 | 33.69846 | -132.46245 | 37282 ft | 476 kts | 65° |
| 2026-05-07 22:13 | 33.72428 | -132.38935 | 37286 ft | 476 kts | 65° |
| 2026-05-07 22:14 | 33.75007 | -132.31612 | 37288 ft | 476 kts | 65° |
| 2026-05-07 22:14 | 33.77584 | -132.24282 | 37284 ft | 476 kts | 65° |
| 2026-05-07 22:15 | 33.80157 | -132.16949 | 37286 ft | 476 kts | 65° |
| 2026-05-07 22:15 | 33.82726 | -132.09604 | 37286 ft | 477 kts | 65° |
| 2026-05-07 22:16 | 33.85292 | -132.02254 | 37287 ft | 477 kts | 65° |
| 2026-05-07 22:16 | 33.87855 | -131.94897 | 37292 ft | 476 kts | 65° |
| 2026-05-07 22:17 | 33.90403 | -131.87565 | 37283 ft | 474 kts | 65° |
| 2026-05-07 22:17 | 33.92945 | -131.80233 | 37286 ft | 475 kts | 65° |
| 2026-05-07 22:18 | 33.96745 | -131.69240 | 37290 ft | 473 kts | 65° |
| 2026-05-07 22:19 | 33.99251 | -131.61970 | 37292 ft | 473 kts | 65° |
| 2026-05-07 22:19 | 34.01772 | -131.54641 | 37293 ft | 473 kts | 65° |
| 2026-05-07 22:20 | 34.04290 | -131.47302 | 37293 ft | 474 kts | 65° |
| 2026-05-07 22:20 | 34.06806 | -131.39952 | 37291 ft | 474 kts | 65° |
| 2026-05-07 22:21 | 34.09318 | -131.32598 | 37294 ft | 474 kts | 65° |
| 2026-05-07 22:21 | 34.11823 | -131.25245 | 37288 ft | 474 kts | 65° |
| 2026-05-07 22:22 | 34.14324 | -131.17889 | 37291 ft | 474 kts | 65° |
| 2026-05-07 22:22 | 34.16822 | -131.10525 | 37294 ft | 474 kts | 65° |
| 2026-05-07 22:23 | 34.19309 | -131.03172 | 37288 ft | 473 kts | 65° |
| 2026-05-07 22:23 | 34.21793 | -130.95813 | 37291 ft | 473 kts | 65° |
| 2026-05-07 22:24 | 34.24272 | -130.88452 | 37299 ft | 473 kts | 65° |
| 2026-05-07 22:24 | 34.26746 | -130.81088 | 37290 ft | 473 kts | 65° |
| 2026-05-07 22:25 | 34.29216 | -130.73717 | 37288 ft | 473 kts | 65° |
| 2026-05-07 22:25 | 34.31680 | -130.66349 | 37288 ft | 472 kts | 65° |
| 2026-05-07 22:26 | 34.34120 | -130.59033 | 37290 ft | 472 kts | 65° |
| 2026-05-07 22:26 | 34.36573 | -130.51662 | 37288 ft | 472 kts | 65° |
| 2026-05-07 22:27 | 34.39023 | -130.44285 | 37291 ft | 472 kts | 65° |
| 2026-05-07 22:27 | 34.41461 | -130.36922 | 37286 ft | 471 kts | 65° |
| 2026-05-07 22:28 | 34.43894 | -130.29558 | 37291 ft | 471 kts | 65° |
| 2026-05-07 22:28 | 34.46322 | -130.22192 | 37296 ft | 470 kts | 65° |
| 2026-05-07 22:29 | 34.48739 | -130.14842 | 37288 ft | 469 kts | 65° |
| 2026-05-07 22:29 | 34.51148 | -130.07496 | 37287 ft | 469 kts | 65° |
| 2026-05-07 22:30 | 34.53555 | -130.00143 | 37296 ft | 469 kts | 65° |
| 2026-05-07 22:30 | 34.55949 | -129.92807 | 37288 ft | 467 kts | 65° |
| 2026-05-07 22:31 | 34.58337 | -129.85475 | 37289 ft | 467 kts | 65° |
| 2026-05-07 22:31 | 34.60721 | -129.78138 | 37289 ft | 467 kts | 65° |
| 2026-05-07 22:32 | 34.63096 | -129.70809 | 37285 ft | 466 kts | 65° |
| 2026-05-07 22:32 | 34.65466 | -129.63479 | 37286 ft | 466 kts | 65° |
| 2026-05-07 22:33 | 34.67833 | -129.56142 | 37294 ft | 466 kts | 65° |
| 2026-05-07 22:33 | 34.70189 | -129.48818 | 37279 ft | 465 kts | 65° |
| 2026-05-07 22:34 | 34.72541 | -129.41492 | 37283 ft | 465 kts | 65° |
| 2026-05-07 22:34 | 34.74888 | -129.34162 | 37289 ft | 465 kts | 65° |
| 2026-05-07 22:35 | 34.77228 | -129.26836 | 37279 ft | 464 kts | 65° |
| 2026-05-07 22:35 | 34.79560 | -129.19516 | 37279 ft | 464 kts | 65° |
| 2026-05-07 22:36 | 34.81890 | -129.12185 | 37284 ft | 464 kts | 65° |
| 2026-05-07 22:36 | 34.84212 | -129.04862 | 37278 ft | 463 kts | 65° |
| 2026-05-07 22:37 | 34.86526 | -128.97545 | 37278 ft | 463 kts | 65° |
| 2026-05-07 22:37 | 34.88821 | -128.90272 | 37276 ft | 463 kts | 65° |
| 2026-05-07 22:38 | 34.91124 | -128.82954 | 37270 ft | 462 kts | 65° |
| 2026-05-07 22:38 | 34.93419 | -128.75647 | 37280 ft | 462 kts | 65° |
| 2026-05-07 22:39 | 34.95708 | -128.68336 | 37277 ft | 462 kts | 65° |
| 2026-05-07 22:39 | 34.97994 | -128.61021 | 37278 ft | 461 kts | 65° |
| 2026-05-07 22:40 | 35.00271 | -128.53713 | 37274 ft | 461 kts | 65° |
| 2026-05-07 22:40 | 35.02545 | -128.46398 | 37273 ft | 461 kts | 65° |
| 2026-05-07 22:41 | 35.04815 | -128.39079 | 37269 ft | 461 kts | 65° |
| 2026-05-07 22:41 | 35.07080 | -128.31757 | 37270 ft | 461 kts | 65° |
| 2026-05-07 22:42 | 35.09342 | -128.24426 | 37274 ft | 461 kts | 65° |
| 2026-05-07 22:42 | 35.11601 | -128.17089 | 37277 ft | 461 kts | 65° |
| 2026-05-07 22:43 | 35.13849 | -128.09764 | 37266 ft | 461 kts | 65° |
| 2026-05-07 22:43 | 35.16095 | -128.02429 | 37268 ft | 461 kts | 65° |
| 2026-05-07 22:44 | 35.18337 | -127.95091 | 37276 ft | 461 kts | 65° |
| 2026-05-07 22:44 | 35.20573 | -127.87754 | 37262 ft | 460 kts | 65° |
| 2026-05-07 22:45 | 35.22789 | -127.80463 | 37266 ft | 460 kts | 65° |
| 2026-05-07 22:45 | 35.25015 | -127.73117 | 37263 ft | 460 kts | 65° |
| 2026-05-07 22:46 | 35.27238 | -127.65770 | 37262 ft | 460 kts | 65° |
| 2026-05-07 22:46 | 35.29453 | -127.58423 | 37254 ft | 460 kts | 65° |
| 2026-05-07 22:47 | 35.31664 | -127.51076 | 37255 ft | 460 kts | 65° |
| 2026-05-07 22:47 | 35.33869 | -127.43726 | 37262 ft | 460 kts | 65° |
| 2026-05-07 22:48 | 35.36067 | -127.36383 | 37251 ft | 459 kts | 65° |
| 2026-05-07 22:48 | 35.38263 | -127.29027 | 37258 ft | 460 kts | 65° |
| 2026-05-07 22:49 | 35.40453 | -127.21672 | 37263 ft | 460 kts | 66° |
| 2026-05-07 22:49 | 35.42639 | -127.14313 | 37252 ft | 459 kts | 66° |
| 2026-05-07 22:50 | 35.44820 | -127.06953 | 37247 ft | 459 kts | 66° |
| 2026-05-07 22:50 | 35.46996 | -126.99586 | 37245 ft | 459 kts | 66° |
| 2026-05-07 22:51 | 35.49169 | -126.92213 | 37243 ft | 459 kts | 66° |
| 2026-05-07 22:51 | 35.51336 | -126.84842 | 37244 ft | 459 kts | 66° |
| 2026-05-07 22:52 | 35.53500 | -126.77468 | 37242 ft | 459 kts | 66° |
| 2026-05-07 22:52 | 35.55660 | -126.70087 | 37242 ft | 459 kts | 66° |
| 2026-05-07 22:53 | 35.57814 | -126.62709 | 37239 ft | 459 kts | 66° |
| 2026-05-07 22:53 | 35.59966 | -126.55319 | 37239 ft | 459 kts | 66° |
| 2026-05-07 22:54 | 35.62099 | -126.47977 | 37249 ft | 459 kts | 66° |
| 2026-05-07 22:54 | 35.64240 | -126.40588 | 37235 ft | 459 kts | 66° |
| 2026-05-07 22:55 | 35.66376 | -126.33194 | 37233 ft | 459 kts | 66° |
| 2026-05-07 22:55 | 35.68509 | -126.25794 | 37233 ft | 459 kts | 66° |
| 2026-05-07 22:56 | 35.70638 | -126.18389 | 37235 ft | 458 kts | 66° |
| 2026-05-07 22:56 | 35.72759 | -126.10995 | 37233 ft | 458 kts | 65° |
| 2026-05-07 22:57 | 35.75224 | -126.03804 | 37234 ft | 456 kts | 63° |
| 2026-05-07 22:57 | 35.77696 | -125.96607 | 37231 ft | 456 kts | 63° |
| 2026-05-07 22:58 | 35.80160 | -125.89401 | 37227 ft | 456 kts | 63° |
| 2026-05-07 22:58 | 35.82205 | -125.83408 | 37224 ft | 456 kts | 63° |
| 2026-05-07 22:59 | 35.84659 | -125.76196 | 37225 ft | 456 kts | 63° |
| 2026-05-07 22:59 | 35.87109 | -125.68982 | 37220 ft | 455 kts | 63° |
| 2026-05-07 23:00 | 35.89549 | -125.61779 | 37206 ft | 455 kts | 63° |
| 2026-05-07 23:00 | 35.91986 | -125.54569 | 37223 ft | 455 kts | 63° |
| 2026-05-07 23:01 | 35.94418 | -125.47355 | 37234 ft | 455 kts | 63° |
| 2026-05-07 23:01 | 35.96843 | -125.40144 | 37216 ft | 455 kts | 63° |
| 2026-05-07 23:02 | 35.99264 | -125.32930 | 37211 ft | 455 kts | 63° |
| 2026-05-07 23:02 | 36.01682 | -125.25706 | 37211 ft | 455 kts | 63° |
| 2026-05-07 23:03 | 36.04095 | -125.18479 | 37211 ft | 456 kts | 63° |
| 2026-05-07 23:03 | 36.06508 | -125.11237 | 37209 ft | 456 kts | 63° |
| 2026-05-07 23:04 | 36.08916 | -125.03990 | 37207 ft | 456 kts | 63° |
| 2026-05-07 23:04 | 36.11320 | -124.96738 | 37218 ft | 456 kts | 64° |
| 2026-05-07 23:05 | 36.13711 | -124.89510 | 37207 ft | 457 kts | 64° |
| 2026-05-07 23:05 | 36.16131 | -124.82180 | 37202 ft | 457 kts | 64° |
| 2026-05-07 23:06 | 36.19252 | -124.75488 | 37190 ft | 443 kts | 40° |
| 2026-05-07 23:06 | 36.23943 | -124.70546 | 37170 ft | 445 kts | 36° |
| 2026-05-07 23:07 | 36.28802 | -124.65740 | 37201 ft | 448 kts | 35° |
| 2026-05-07 23:07 | 36.33694 | -124.60982 | 37201 ft | 447 kts | 35° |
| 2026-05-07 23:08 | 36.38559 | -124.56258 | 37195 ft | 447 kts | 35° |
| 2026-05-07 23:08 | 36.43455 | -124.51498 | 37195 ft | 447 kts | 35° |
| 2026-05-07 23:09 | 36.48354 | -124.46728 | 37198 ft | 447 kts | 36° |
| 2026-05-07 23:09 | 36.53284 | -124.41919 | 37192 ft | 453 kts | 36° |
| 2026-05-07 23:10 | 36.58234 | -124.37082 | 37186 ft | 452 kts | 36° |
| 2026-05-07 23:10 | 36.63182 | -124.32240 | 37190 ft | 452 kts | 36° |
| 2026-05-07 23:11 | 36.68125 | -124.27394 | 37188 ft | 452 kts | 36° |
| 2026-05-07 23:11 | 36.73070 | -124.22539 | 37185 ft | 452 kts | 36° |
| 2026-05-07 23:12 | 36.78027 | -124.17661 | 37180 ft | 457 kts | 36° |
| 2026-05-07 23:12 | 36.83035 | -124.12728 | 37184 ft | 458 kts | 37° |
| 2026-05-07 23:13 | 36.88036 | -124.07792 | 37176 ft | 458 kts | 36° |
| 2026-05-07 23:13 | 36.93035 | -124.02848 | 37177 ft | 459 kts | 37° |
| 2026-05-07 23:14 | 36.98056 | -123.97875 | 37179 ft | 461 kts | 37° |
| 2026-05-07 23:14 | 37.03083 | -123.92887 | 37171 ft | 463 kts | 37° |
| 2026-05-07 23:15 | 37.08147 | -123.87856 | 37173 ft | 465 kts | 37° |
| 2026-05-07 23:15 | 37.13211 | -123.82814 | 37168 ft | 465 kts | 37° |
| 2026-05-07 23:16 | 37.18277 | -123.77760 | 37172 ft | 465 kts | 37° |
| 2026-05-07 23:16 | 37.23336 | -123.72707 | 37173 ft | 465 kts | 38° |
| 2026-05-07 23:17 | 37.28399 | -123.67638 | 37164 ft | 465 kts | 38° |
| 2026-05-07 23:17 | 37.33463 | -123.62561 | 37167 ft | 467 kts | 38° |
| 2026-05-07 23:18 | 37.38535 | -123.57465 | 37161 ft | 466 kts | 38° |
| 2026-05-07 23:18 | 37.43571 | -123.52399 | 37164 ft | 467 kts | 38° |
| 2026-05-07 23:19 | 37.48639 | -123.47290 | 37161 ft | 467 kts | 38° |
| 2026-05-07 23:19 | 37.51171 | -123.44734 | 36850 ft | 466 kts | 38° |
| 2026-05-07 23:19 | 37.53732 | -123.42147 | 35565 ft | 479 kts | 38° |
| 2026-05-07 23:19 | 37.56324 | -123.39525 | 35047 ft | 474 kts | 38° |
| 2026-05-07 23:20 | 37.58891 | -123.36927 | 34309 ft | 474 kts | 38° |
| 2026-05-07 23:20 | 37.61474 | -123.34310 | 33319 ft | 478 kts | 38° |
| 2026-05-07 23:20 | 37.64064 | -123.31683 | 32566 ft | 477 kts | 38° |
| 2026-05-07 23:20 | 37.66633 | -123.29077 | 32091 ft | 470 kts | 38° |
| 2026-05-07 23:21 | 37.69159 | -123.26511 | 31681 ft | 462 kts | 38° |
| 2026-05-07 23:21 | 37.71652 | -123.23975 | 31169 ft | 458 kts | 38° |
| 2026-05-07 23:21 | 37.74124 | -123.21460 | 30586 ft | 456 kts | 37° |
| 2026-05-07 23:21 | 37.76592 | -123.18946 | 29935 ft | 455 kts | 37° |
| 2026-05-07 23:22 | 37.79047 | -123.16443 | 29279 ft | 452 kts | 37° |
| 2026-05-07 23:22 | 37.81480 | -123.13959 | 28755 ft | 447 kts | 38° |
| 2026-05-07 23:22 | 37.83888 | -123.11500 | 28204 ft | 443 kts | 38° |
| 2026-05-07 23:22 | 37.86276 | -123.09061 | 27670 ft | 439 kts | 38° |
| 2026-05-07 23:23 | 37.88645 | -123.06636 | 27128 ft | 436 kts | 38° |
| 2026-05-07 23:23 | 37.90993 | -123.04233 | 26596 ft | 433 kts | 38° |
| 2026-05-07 23:23 | 37.93328 | -123.01841 | 26067 ft | 430 kts | 37° |
| 2026-05-07 23:23 | 37.95647 | -122.99463 | 25544 ft | 428 kts | 38° |
| 2026-05-07 23:24 | 37.97951 | -122.97099 | 25032 ft | 425 kts | 38° |
| 2026-05-07 23:24 | 38.00244 | -122.94745 | 24519 ft | 423 kts | 38° |
| 2026-05-07 23:24 | 38.02524 | -122.92402 | 24012 ft | 421 kts | 37° |
| 2026-05-07 23:24 | 38.04791 | -122.90070 | 23474 ft | 419 kts | 37° |
| 2026-05-07 23:25 | 38.07048 | -122.87746 | 22926 ft | 416 kts | 38° |
| 2026-05-07 23:25 | 38.09128 | -122.85206 | 22316 ft | 416 kts | 47° |
| 2026-05-07 23:25 | 38.11041 | -122.82486 | 21869 ft | 409 kts | 47° |
| 2026-05-07 23:25 | 38.12926 | -122.79833 | 21440 ft | 400 kts | 47° |
| 2026-05-07 23:26 | 38.14771 | -122.77235 | 21005 ft | 392 kts | 47° |
| 2026-05-07 23:26 | 38.16581 | -122.74685 | 20575 ft | 386 kts | 47° |
| 2026-05-07 23:26 | 38.18365 | -122.72173 | 20141 ft | 379 kts | 47° |
| 2026-05-07 23:26 | 38.20116 | -122.69703 | 19724 ft | 373 kts | 47° |
| 2026-05-07 23:27 | 38.23539 | -122.64872 | 18900 ft | 362 kts | 47° |
| 2026-05-07 23:27 | 38.25192 | -122.62535 | 18520 ft | 357 kts | 47° |
| 2026-05-07 23:27 | 38.26872 | -122.60159 | 18104 ft | 358 kts | 47° |
| 2026-05-07 23:28 | 38.28528 | -122.57817 | 17676 ft | 363 kts | 47° |
| 2026-05-07 23:28 | 38.30224 | -122.55413 | 17273 ft | 366 kts | 47° |
| 2026-05-07 23:28 | 38.31927 | -122.52998 | 16878 ft | 366 kts | 47° |
| 2026-05-07 23:28 | 38.33625 | -122.50591 | 16493 ft | 365 kts | 47° |
| 2026-05-07 23:29 | 38.35318 | -122.48187 | 16095 ft | 364 kts | 47° |
| 2026-05-07 23:29 | 38.37009 | -122.45784 | 15714 ft | 363 kts | 47° |
| 2026-05-07 23:29 | 38.38693 | -122.43391 | 15327 ft | 362 kts | 47° |
| 2026-05-07 23:29 | 38.40370 | -122.41004 | 14937 ft | 360 kts | 47° |
| 2026-05-07 23:30 | 38.42038 | -122.38629 | 14540 ft | 358 kts | 47° |
| 2026-05-07 23:30 | 38.43695 | -122.36268 | 14168 ft | 357 kts | 47° |
| 2026-05-07 23:30 | 38.45347 | -122.33914 | 13778 ft | 355 kts | 47° |
| 2026-05-07 23:30 | 38.46992 | -122.31565 | 13359 ft | 354 kts | 47° |
| 2026-05-07 23:31 | 38.48627 | -122.29229 | 12956 ft | 352 kts | 47° |
| 2026-05-07 23:31 | 38.50250 | -122.26910 | 12572 ft | 349 kts | 47° |
| 2026-05-07 23:31 | 38.51861 | -122.24607 | 12201 ft | 346 kts | 47° |
| 2026-05-07 23:31 | 38.53459 | -122.22318 | 11825 ft | 344 kts | 47° |
| 2026-05-07 23:32 | 38.55051 | -122.20038 | 11436 ft | 343 kts | 47° |
| 2026-05-07 23:32 | 38.56632 | -122.17773 | 11078 ft | 341 kts | 47° |
| 2026-05-07 23:32 | 38.58203 | -122.15519 | 10779 ft | 337 kts | 47° |
| 2026-05-07 23:32 | 38.59743 | -122.13308 | 10614 ft | 329 kts | 47° |
| 2026-05-07 23:33 | 38.61240 | -122.11158 | 10472 ft | 319 kts | 47° |
| 2026-05-07 23:33 | 38.62693 | -122.09069 | 10343 ft | 310 kts | 47° |
| 2026-05-07 23:33 | 38.64102 | -122.07043 | 10209 ft | 301 kts | 47° |
| 2026-05-07 23:33 | 38.65476 | -122.05066 | 10071 ft | 293 kts | 47° |
| 2026-05-07 23:34 | 38.66819 | -122.03133 | 9823 ft | 289 kts | 47° |
| 2026-05-07 23:34 | 38.68153 | -122.01210 | 9496 ft | 288 kts | 47° |
| 2026-05-07 23:34 | 38.69481 | -121.99296 | 9183 ft | 287 kts | 47° |
| 2026-05-07 23:34 | 38.70805 | -121.97385 | 8872 ft | 286 kts | 47° |
| 2026-05-07 23:35 | 38.72117 | -121.95490 | 8582 ft | 284 kts | 47° |
| 2026-05-07 23:35 | 38.73422 | -121.93605 | 8294 ft | 282 kts | 47° |
| 2026-05-07 23:35 | 38.74719 | -121.91731 | 8001 ft | 280 kts | 47° |
| 2026-05-07 23:35 | 38.76009 | -121.89866 | 7711 ft | 279 kts | 47° |
| 2026-05-07 23:36 | 38.77274 | -121.88034 | 7427 ft | 277 kts | 47° |
| 2026-05-07 23:36 | 38.78550 | -121.86188 | 7139 ft | 276 kts | 47° |
| 2026-05-07 23:36 | 38.79822 | -121.84346 | 6853 ft | 275 kts | 47° |
| 2026-05-07 23:36 | 38.81089 | -121.82508 | 6563 ft | 275 kts | 47° |
| 2026-05-07 23:37 | 38.82355 | -121.80672 | 6252 ft | 275 kts | 47° |
| 2026-05-07 23:37 | 38.83617 | -121.78839 | 5951 ft | 273 kts | 48° |
| 2026-05-07 23:37 | 38.84873 | -121.77016 | 5658 ft | 272 kts | 48° |
| 2026-05-07 23:37 | 38.86124 | -121.75198 | 5364 ft | 271 kts | 48° |
| 2026-05-07 23:38 | 38.87372 | -121.73387 | 5072 ft | 270 kts | 48° |
| 2026-05-07 23:38 | 38.88615 | -121.71580 | 4781 ft | 269 kts | 48° |
| 2026-05-07 23:38 | 38.89853 | -121.69778 | 4483 ft | 268 kts | 48° |
| 2026-05-07 23:38 | 38.91084 | -121.67987 | 4187 ft | 267 kts | 48° |
| 2026-05-07 23:39 | 38.92298 | -121.66220 | 4015 ft | 260 kts | 48° |
| 2026-05-07 23:39 | 38.93255 | -121.64322 | 3915 ft | 249 kts | 71° |
| 2026-05-07 23:39 | 38.93438 | -121.62183 | 3789 ft | 237 kts | 99° |
| 2026-05-07 23:39 | 38.92908 | -121.60269 | 3667 ft | 220 kts | 123° |
| 2026-05-07 23:40 | 38.91987 | -121.58843 | 3492 ft | 197 kts | 145° |
| 2026-05-07 23:40 | 38.90786 | -121.58166 | 3325 ft | 186 kts | 168° |
| 2026-05-07 23:40 | 38.89520 | -121.57890 | 3242 ft | 183 kts | 176° |
| 2026-05-07 23:40 | 38.88248 | -121.57787 | 3163 ft | 183 kts | 180° |
| 2026-05-07 23:41 | 38.86971 | -121.57754 | 2987 ft | 183 kts | 181° |
| 2026-05-07 23:41 | 38.85753 | -121.57757 | 2819 ft | 170 kts | 182° |
| 2026-05-07 23:41 | 38.84588 | -121.57772 | 2640 ft | 166 kts | 181° |
| 2026-05-07 23:41 | 38.83444 | -121.57790 | 2446 ft | 164 kts | 181° |
| 2026-05-07 23:42 | 38.82305 | -121.57808 | 2242 ft | 163 kts | 181° |
| 2026-05-07 23:42 | 38.81176 | -121.57827 | 2042 ft | 162 kts | 181° |
| 2026-05-07 23:42 | 38.80049 | -121.57846 | 1841 ft | 161 kts | 181° |
| 2026-05-07 23:42 | 38.78941 | -121.57866 | 1645 ft | 157 kts | 180° |
| 2026-05-07 23:43 | 38.77893 | -121.57883 | 1440 ft | 146 kts | 181° |
| 2026-05-07 23:43 | 38.76893 | -121.57900 | 1247 ft | 142 kts | 182° |
| 2026-05-07 23:43 | 38.75913 | -121.57916 | 1067 ft | 138 kts | 181° |
| 2026-05-07 23:43 | 38.74967 | -121.57935 | 869 ft | 135 kts | 181° |
| 2026-05-07 23:44 | 38.74024 | -121.57960 | 695 ft | 136 kts | 182° |
| 2026-05-07 23:44 | 38.73061 | -121.57979 | 534 ft | 139 kts | 181° |
| 2026-05-07 23:44 | 38.72092 | -121.57983 | 357 ft | 139 kts | 181° |
| 2026-05-07 23:44 | 38.71450 | -121.57992 | 247 ft | 140 kts | 182° |
| 2026-05-07 23:45 | 38.70213 | -121.58019 | 32 ft | 120 kts | 179° |
| 2026-05-07 23:45 | 38.69745 | -121.58025 | 32 ft | 82 kts | 181° |
| 2026-05-07 23:45 | 38.69237 | -121.58066 | 32 ft | 24 kts | 203° |
| 2026-05-07 23:45 | 38.69115 | -121.58150 | 32 ft | 9 kts | 210° |
| 2026-05-07 23:46 | 38.69074 | -121.58180 | 32 ft | 11 kts | 211° |
| 2026-05-07 23:46 | 38.69045 | -121.58288 | 31 ft | 13 kts | 332° |
| 2026-05-07 23:46 | 38.69139 | -121.58296 | 31 ft | 15 kts | 2° |
| 2026-05-07 23:46 | 38.69187 | -121.58327 | 31 ft | 9 kts | 282° |
| 2026-05-07 23:47 | 38.69186 | -121.58416 | 31 ft | 11 kts | 270° |
| 2026-05-07 23:47 | 38.69192 | -121.58528 | 31 ft | 14 kts | 286° |
| 2026-05-07 23:47 | 38.69253 | -121.58607 | 31 ft | 9 kts | 321° |
| 2026-05-07 23:47 | 38.69257 | -121.58612 | 31 ft | 0 kts | 320° |